sensor_id;sensor_type;location;lat;lon;timestamp;pressure;altitude;pressure_sealevel;temperature;humidity
47761;BME280;33524;55.434;38.520;2023-03-23T00:01:22;100161.75;;;3.26;77.23
47761;BME280;33524;55.434;38.520;2023-03-23T00:03:51;100177.13;;;3.30;77.34
47761;BME280;33524;55.434;38.520;2023-03-23T00:06:20;100164.19;;;3.29;77.02
47761;BME280;33524;55.434;38.520;2023-03-23T00:08:48;100165.97;;;3.28;77.37
47761;BME280;33524;55.434;38.520;2023-03-23T00:11:19;100164.00;;;3.33;77.06
47761;BME280;33524;55.434;38.520;2023-03-23T00:13:48;100167.66;;;3.29;77.46
47761;BME280;33524;55.434;38.520;2023-03-23T00:16:23;100164.97;;;3.31;77.51
47761;BME280;33524;55.434;38.520;2023-03-23T00:19:00;100161.53;;;3.30;77.42
47761;BME280;33524;55.434;38.520;2023-03-23T00:21:30;100168.28;;;3.34;77.33
47761;BME280;33524;55.434;38.520;2023-03-23T00:24:05;100150.53;;;3.25;77.41
47761;BME280;33524;55.434;38.520;2023-03-23T00:26:34;100164.97;;;3.31;77.57
47761;BME280;33524;55.434;38.520;2023-03-23T00:29:03;100173.41;;;3.36;77.04
47761;BME280;33524;55.434;38.520;2023-03-23T00:31:29;100163.31;;;3.30;77.46
47761;BME280;33524;55.434;38.520;2023-03-23T00:33:59;100168.44;;;3.31;77.55
47761;BME280;33524;55.434;38.520;2023-03-23T00:36:27;100148.44;;;3.14;77.78
47761;BME280;33524;55.434;38.520;2023-03-23T00:38:55;100164.41;;;3.24;77.89
47761;BME280;33524;55.434;38.520;2023-03-23T00:41:26;100163.53;;;3.25;77.97
47761;BME280;33524;55.434;38.520;2023-03-23T00:43:57;100160.94;;;3.25;77.90
47761;BME280;33524;55.434;38.520;2023-03-23T00:46:24;100158.38;;;3.23;77.95
47761;BME280;33524;55.434;38.520;2023-03-23T00:48:51;100159.16;;;3.26;77.91
47761;BME280;33524;55.434;38.520;2023-03-23T00:51:18;100155.06;;;3.20;78.33
47761;BME280;33524;55.434;38.520;2023-03-23T00:53:45;100153.41;;;3.19;78.24
47761;BME280;33524;55.434;38.520;2023-03-23T00:56:12;100149.09;;;3.18;78.40
47761;BME280;33524;55.434;38.520;2023-03-23T00:58:39;100143.91;;;3.18;78.41
47761;BME280;33524;55.434;38.520;2023-03-23T01:01:06;100150.75;;;3.20;78.29
47761;BME280;33524;55.434;38.520;2023-03-23T01:03:33;100144.69;;;3.20;78.36
47761;BME280;33524;55.434;38.520;2023-03-23T01:06:06;100142.84;;;3.22;78.19
47761;BME280;33524;55.434;38.520;2023-03-23T01:08:34;100140.41;;;3.19;78.30
47761;BME280;33524;55.434;38.520;2023-03-23T01:11:04;100141.03;;;3.24;78.02
47761;BME280;33524;55.434;38.520;2023-03-23T01:13:31;100133.72;;;3.13;78.46
47761;BME280;33524;55.434;38.520;2023-03-23T01:15:58;100140.53;;;3.16;78.63
47761;BME280;33524;55.434;38.520;2023-03-23T01:18:24;100136.22;;;3.16;78.67
47761;BME280;33524;55.434;38.520;2023-03-23T01:20:51;100133.50;;;3.18;78.51
47761;BME280;33524;55.434;38.520;2023-03-23T01:23:18;100123.06;;;3.19;78.44
47761;BME280;33524;55.434;38.520;2023-03-23T01:25:44;100131.78;;;3.18;78.57
47761;BME280;33524;55.434;38.520;2023-03-23T01:28:11;100124.94;;;3.16;78.68
47761;BME280;33524;55.434;38.520;2023-03-23T01:30:37;100125.59;;;3.21;78.32
47761;BME280;33524;55.434;38.520;2023-03-23T01:33:04;100118.69;;;3.20;78.50
47761;BME280;33524;55.434;38.520;2023-03-23T01:35:30;100123.97;;;3.18;78.46
47761;BME280;33524;55.434;38.520;2023-03-23T01:37:56;100118.69;;;3.20;78.47
47761;BME280;33524;55.434;38.520;2023-03-23T01:40:23;100123.13;;;3.18;78.46
47761;BME280;33524;55.434;38.520;2023-03-23T01:42:50;100120.12;;;3.27;77.92
47761;BME280;33524;55.434;38.520;2023-03-23T01:45:23;100117.34;;;3.30;77.60
47761;BME280;33524;55.434;38.520;2023-03-23T01:48:03;100116.69;;;3.27;77.93
47761;BME280;33524;55.434;38.520;2023-03-23T01:50:36;100113.50;;;3.20;78.22
47761;BME280;33524;55.434;38.520;2023-03-23T01:53:05;100113.97;;;3.28;77.84
47761;BME280;33524;55.434;38.520;2023-03-23T01:55:37;100109.44;;;3.33;77.48
47761;BME280;33524;55.434;38.520;2023-03-23T01:58:05;100109.78;;;3.26;77.94
47761;BME280;33524;55.434;38.520;2023-03-23T02:00:32;100111.59;;;3.23;78.03
47761;BME280;33524;55.434;38.520;2023-03-23T02:03:00;100101.75;;;3.30;77.79
47761;BME280;33524;55.434;38.520;2023-03-23T02:05:34;100110.78;;;3.23;78.10
47761;BME280;33524;55.434;38.520;2023-03-23T02:08:07;100109.56;;;3.30;77.76
47761;BME280;33524;55.434;38.520;2023-03-23T02:10:36;100105.19;;;3.50;76.07
47761;BME280;33524;55.434;38.520;2023-03-23T02:13:08;100102.47;;;3.34;77.34
47761;BME280;33524;55.434;38.520;2023-03-23T02:16:04;100109.22;;;3.55;75.62
47761;BME280;33524;55.434;38.520;2023-03-23T02:18:36;100098.81;;;3.74;74.42
47761;BME280;33524;55.434;38.520;2023-03-23T02:23:54;100096.44;;;3.33;77.03
47761;BME280;33524;55.434;38.520;2023-03-23T02:27:06;100095.16;;;3.42;75.63
47761;BME280;33524;55.434;38.520;2023-03-23T02:29:57;100098.25;;;3.31;77.38
47761;BME280;33524;55.434;38.520;2023-03-23T02:35:39;100105.69;;;3.20;78.09
47761;BME280;33524;55.434;38.520;2023-03-23T02:38:14;100103.69;;;3.27;77.80
47761;BME280;33524;55.434;38.520;2023-03-23T02:40:45;100099.03;;;3.33;77.41
47761;BME280;33524;55.434;38.520;2023-03-23T02:43:16;100097.41;;;3.31;77.43
47761;BME280;33524;55.434;38.520;2023-03-23T02:45:44;100105.53;;;3.42;76.97
47761;BME280;33524;55.434;38.520;2023-03-23T02:48:14;100102.59;;;3.31;77.21
47761;BME280;33524;55.434;38.520;2023-03-23T02:50:49;100094.72;;;3.32;76.85
47761;BME280;33524;55.434;38.520;2023-03-23T02:53:20;100105.56;;;3.23;77.21
47761;BME280;33524;55.434;38.520;2023-03-23T02:55:50;100111.06;;;3.17;78.17
47761;BME280;33524;55.434;38.520;2023-03-23T02:58:19;100092.00;;;2.97;78.68
47761;BME280;33524;55.434;38.520;2023-03-23T03:00:48;100101.00;;;3.09;78.59
47761;BME280;33524;55.434;38.520;2023-03-23T03:03:18;100098.84;;;3.00;78.90
47761;BME280;33524;55.434;38.520;2023-03-23T03:06:09;100100.09;;;3.10;77.99
47761;BME280;33524;55.434;38.520;2023-03-23T03:09:01;100095.38;;;2.99;78.51
47761;BME280;33524;55.434;38.520;2023-03-23T03:11:29;100108.84;;;2.70;80.35
47761;BME280;33524;55.434;38.520;2023-03-23T03:14:02;100111.72;;;2.63;80.89
47761;BME280;33524;55.434;38.520;2023-03-23T03:16:37;100108.69;;;2.54;81.46
47761;BME280;33524;55.434;38.520;2023-03-23T03:19:11;100101.31;;;2.45;81.76
47761;BME280;33524;55.434;38.520;2023-03-23T03:21:44;100106.94;;;2.54;80.83
47761;BME280;33524;55.434;38.520;2023-03-23T03:24:17;100096.56;;;2.54;80.69
47761;BME280;33524;55.434;38.520;2023-03-23T03:26:48;100106.72;;;2.19;82.26
47761;BME280;33524;55.434;38.520;2023-03-23T03:29:18;100098.19;;;2.36;81.27
47761;BME280;33524;55.434;38.520;2023-03-23T03:31:49;100099.19;;;2.34;80.98
47761;BME280;33524;55.434;38.520;2023-03-23T03:34:17;100095.16;;;2.27;81.25
47761;BME280;33524;55.434;38.520;2023-03-23T03:36:45;100088.28;;;2.46;79.64
47761;BME280;33524;55.434;38.520;2023-03-23T03:39:13;100095.84;;;2.51;79.13
47761;BME280;33524;55.434;38.520;2023-03-23T03:41:42;100099.81;;;2.18;81.37
47761;BME280;33524;55.434;38.520;2023-03-23T03:44:09;100098.59;;;2.27;80.75
47761;BME280;33524;55.434;38.520;2023-03-23T03:46:36;100098.72;;;2.04;82.92
47761;BME280;33524;55.434;38.520;2023-03-23T03:49:05;100091.25;;;1.96;83.42
47761;BME280;33524;55.434;38.520;2023-03-23T03:51:33;100093.47;;;2.26;80.67
47761;BME280;33524;55.434;38.520;2023-03-23T03:54:00;100084.91;;;2.03;82.24
47761;BME280;33524;55.434;38.520;2023-03-23T03:56:27;100104.13;;;2.19;81.23
47761;BME280;33524;55.434;38.520;2023-03-23T03:58:55;100098.72;;;2.45;80.11
47761;BME280;33524;55.434;38.520;2023-03-23T04:01:22;100089.34;;;2.21;81.24
47761;BME280;33524;55.434;38.520;2023-03-23T04:03:49;100095.00;;;2.50;79.80
47761;BME280;33524;55.434;38.520;2023-03-23T04:06:17;100095.16;;;2.66;79.31
47761;BME280;33524;55.434;38.520;2023-03-23T04:08:44;100085.38;;;2.92;76.39
47761;BME280;33524;55.434;38.520;2023-03-23T04:11:13;100052.44;;;2.92;75.39
47761;BME280;33524;55.434;38.520;2023-03-23T04:13:40;100078.16;;;3.16;75.09
47761;BME280;33524;55.434;38.520;2023-03-23T04:16:08;100080.56;;;3.20;74.83
47761;BME280;33524;55.434;38.520;2023-03-23T04:18:35;100082.50;;;3.34;74.72
47761;BME280;33524;55.434;38.520;2023-03-23T04:21:04;100065.62;;;3.07;76.27
47761;BME280;33524;55.434;38.520;2023-03-23T04:23:31;100078.75;;;3.22;74.99
47761;BME280;33524;55.434;38.520;2023-03-23T04:26:00;100078.41;;;3.48;73.73
47761;BME280;33524;55.434;38.520;2023-03-23T04:28:27;100084.09;;;3.56;73.36
47761;BME280;33524;55.434;38.520;2023-03-23T04:30:55;100077.87;;;3.22;75.87
47761;BME280;33524;55.434;38.520;2023-03-23T04:33:24;100077.84;;;3.41;74.52
47761;BME280;33524;55.434;38.520;2023-03-23T04:35:54;100079.47;;;3.43;74.74
47761;BME280;33524;55.434;38.520;2023-03-23T04:38:22;100073.06;;;3.14;78.20
47761;BME280;33524;55.434;38.520;2023-03-23T04:40:52;100072.25;;;3.85;72.52
47761;BME280;33524;55.434;38.520;2023-03-23T04:43:22;100070.16;;;3.39;75.57
47761;BME280;33524;55.434;38.520;2023-03-23T04:45:53;100071.19;;;3.89;72.80
47761;BME280;33524;55.434;38.520;2023-03-23T04:48:25;100069.62;;;4.02;72.42
47761;BME280;33524;55.434;38.520;2023-03-23T04:50:53;100082.09;;;4.31;70.80
47761;BME280;33524;55.434;38.520;2023-03-23T04:53:20;100053.97;;;4.37;69.83
47761;BME280;33524;55.434;38.520;2023-03-23T04:55:48;100077.91;;;4.61;69.61
47761;BME280;33524;55.434;38.520;2023-03-23T04:58:16;100079.53;;;4.80;68.96
47761;BME280;33524;55.434;38.520;2023-03-23T05:00:43;100077.78;;;4.96;68.44
47761;BME280;33524;55.434;38.520;2023-03-23T05:03:16;100076.31;;;4.75;69.64
47761;BME280;33524;55.434;38.520;2023-03-23T05:05:44;100083.09;;;4.77;70.78
47761;BME280;33524;55.434;38.520;2023-03-23T05:08:14;100071.13;;;5.07;68.64
47761;BME280;33524;55.434;38.520;2023-03-23T05:10:40;100072.72;;;4.93;69.49
47761;BME280;33524;55.434;38.520;2023-03-23T05:13:07;100076.41;;;4.89;70.66
47761;BME280;33524;55.434;38.520;2023-03-23T05:15:33;100057.78;;;5.13;68.63
47761;BME280;33524;55.434;38.520;2023-03-23T05:18:01;100077.84;;;5.42;67.86
47761;BME280;33524;55.434;38.520;2023-03-23T05:20:30;100065.25;;;5.19;69.44
47761;BME280;33524;55.434;38.520;2023-03-23T05:22:57;100060.87;;;5.65;67.46
47761;BME280;33524;55.434;38.520;2023-03-23T05:25:24;100063.41;;;5.67;67.53
47761;BME280;33524;55.434;38.520;2023-03-23T05:27:50;100063.03;;;5.43;70.15
47761;BME280;33524;55.434;38.520;2023-03-23T05:30:20;100062.50;;;5.82;67.77
47761;BME280;33524;55.434;38.520;2023-03-23T05:32:49;100056.75;;;5.61;69.09
47761;BME280;33524;55.434;38.520;2023-03-23T05:35:18;100060.00;;;5.81;68.56
47761;BME280;33524;55.434;38.520;2023-03-23T05:37:45;100052.75;;;6.45;65.98
47761;BME280;33524;55.434;38.520;2023-03-23T05:40:13;100053.22;;;6.37;66.52
47761;BME280;33524;55.434;38.520;2023-03-23T05:42:41;100052.28;;;6.53;66.20
47761;BME280;33524;55.434;38.520;2023-03-23T05:45:09;100052.94;;;7.12;64.14
47761;BME280;33524;55.434;38.520;2023-03-23T05:47:38;100050.59;;;7.22;63.80
47761;BME280;33524;55.434;38.520;2023-03-23T05:50:06;100049.53;;;7.24;63.85
47761;BME280;33524;55.434;38.520;2023-03-23T05:52:37;100050.50;;;7.51;63.28
47761;BME280;33524;55.434;38.520;2023-03-23T05:55:06;100045.69;;;7.57;63.38
47761;BME280;33524;55.434;38.520;2023-03-23T05:57:34;100046.91;;;7.52;63.74
47761;BME280;33524;55.434;38.520;2023-03-23T06:00:03;100040.34;;;7.59;63.56
47761;BME280;33524;55.434;38.520;2023-03-23T06:02:47;100042.16;;;7.71;63.85
47761;BME280;33524;55.434;38.520;2023-03-23T06:05:16;100050.72;;;7.33;65.06
47761;BME280;33524;55.434;38.520;2023-03-23T06:07:44;100048.50;;;8.07;63.04
47761;BME280;33524;55.434;38.520;2023-03-23T06:10:10;100053.72;;;8.20;62.10
47761;BME280;33524;55.434;38.520;2023-03-23T06:12:39;100055.94;;;8.39;62.48
47761;BME280;33524;55.434;38.520;2023-03-23T06:15:08;100054.47;;;8.35;62.35
47761;BME280;33524;55.434;38.520;2023-03-23T06:17:38;100057.19;;;8.20;63.29
47761;BME280;33524;55.434;38.520;2023-03-23T06:20:05;100059.19;;;8.55;61.87
47761;BME280;33524;55.434;38.520;2023-03-23T06:22:38;100054.25;;;9.13;61.35
47761;BME280;33524;55.434;38.520;2023-03-23T06:25:07;100060.66;;;8.59;61.69
47761;BME280;33524;55.434;38.520;2023-03-23T06:27:34;100053.16;;;7.76;65.72
47761;BME280;33524;55.434;38.520;2023-03-23T06:30:04;100052.56;;;7.85;65.31
47761;BME280;33524;55.434;38.520;2023-03-23T06:32:32;100053.81;;;8.05;65.37
47761;BME280;33524;55.434;38.520;2023-03-23T06:34:59;100058.81;;;7.43;66.95
47761;BME280;33524;55.434;38.520;2023-03-23T06:37:42;100061.75;;;7.78;66.47
47761;BME280;33524;55.434;38.520;2023-03-23T06:40:08;100039.34;;;7.34;66.80
47761;BME280;33524;55.434;38.520;2023-03-23T06:42:36;100065.78;;;8.22;65.64
47761;BME280;33524;55.434;38.520;2023-03-23T06:45:05;100057.81;;;8.24;66.35
47761;BME280;33524;55.434;38.520;2023-03-23T06:47:34;100052.78;;;8.59;64.95
47761;BME280;33524;55.434;38.520;2023-03-23T06:50:01;100061.81;;;8.81;62.99
47761;BME280;33524;55.434;38.520;2023-03-23T06:52:30;100051.81;;;9.82;62.04
47761;BME280;33524;55.434;38.520;2023-03-23T06:54:57;100044.84;;;10.05;59.42
47761;BME280;33524;55.434;38.520;2023-03-23T06:57:23;100049.59;;;10.00;57.95
47761;BME280;33524;55.434;38.520;2023-03-23T06:59:50;100032.34;;;10.77;59.32
47761;BME280;33524;55.434;38.520;2023-03-23T07:02:18;100040.72;;;10.82;56.06
47761;BME280;33524;55.434;38.520;2023-03-23T07:04:44;100035.47;;;10.59;56.30
47761;BME280;33524;55.434;38.520;2023-03-23T07:07:11;100042.66;;;10.46;56.78
47761;BME280;33524;55.434;38.520;2023-03-23T07:09:41;100028.47;;;11.03;55.55
47761;BME280;33524;55.434;38.520;2023-03-23T07:12:08;100029.66;;;11.10;58.19
47761;BME280;33524;55.434;38.520;2023-03-23T07:14:36;100027.31;;;11.61;55.88
47761;BME280;33524;55.434;38.520;2023-03-23T07:17:03;100043.47;;;10.80;55.36
47761;BME280;33524;55.434;38.520;2023-03-23T07:19:31;100035.19;;;11.40;54.38
47761;BME280;33524;55.434;38.520;2023-03-23T07:21:58;100026.31;;;11.73;57.15
47761;BME280;33524;55.434;38.520;2023-03-23T07:24:25;100032.91;;;12.00;53.38
47761;BME280;33524;55.434;38.520;2023-03-23T07:26:53;100022.12;;;11.70;52.50
47761;BME280;33524;55.434;38.520;2023-03-23T07:29:19;100030.19;;;12.42;54.36
47761;BME280;33524;55.434;38.520;2023-03-23T07:31:47;100027.00;;;11.75;53.46
47761;BME280;33524;55.434;38.520;2023-03-23T07:34:14;100027.00;;;11.22;53.38
47761;BME280;33524;55.434;38.520;2023-03-23T07:36:41;100023.34;;;11.45;58.78
47761;BME280;33524;55.434;38.520;2023-03-23T07:39:08;100021.28;;;11.17;58.44
47761;BME280;33524;55.434;38.520;2023-03-23T07:41:34;100023.53;;;12.78;54.44
47761;BME280;33524;55.434;38.520;2023-03-23T07:44:01;100021.31;;;12.12;53.29
47761;BME280;33524;55.434;38.520;2023-03-23T07:46:29;100008.94;;;12.34;53.51
47761;BME280;33524;55.434;38.520;2023-03-23T07:48:56;100014.19;;;12.34;52.26
47761;BME280;33524;55.434;38.520;2023-03-23T07:51:23;100010.84;;;12.62;55.30
47761;BME280;33524;55.434;38.520;2023-03-23T07:53:51;100007.47;;;12.50;51.64
47761;BME280;33524;55.434;38.520;2023-03-23T07:56:19;99996.25;;;11.97;51.93
47761;BME280;33524;55.434;38.520;2023-03-23T07:58:46;100009.91;;;12.73;54.33
47761;BME280;33524;55.434;38.520;2023-03-23T08:01:14;99994.97;;;12.93;54.95
47761;BME280;33524;55.434;38.520;2023-03-23T08:03:48;99999.50;;;12.31;52.59
47761;BME280;33524;55.434;38.520;2023-03-23T08:06:14;99983.19;;;12.47;54.94
47761;BME280;33524;55.434;38.520;2023-03-23T08:08:42;99981.97;;;13.50;50.29
47761;BME280;33524;55.434;38.520;2023-03-23T08:11:09;99989.06;;;12.70;52.39
47761;BME280;33524;55.434;38.520;2023-03-23T08:13:36;99988.25;;;12.69;54.44
47761;BME280;33524;55.434;38.520;2023-03-23T08:16:03;99982.12;;;12.28;51.18
47761;BME280;33524;55.434;38.520;2023-03-23T08:18:30;99966.62;;;13.24;52.64
47761;BME280;33524;55.434;38.520;2023-03-23T08:20:58;99969.25;;;12.76;49.44
47761;BME280;33524;55.434;38.520;2023-03-23T08:23:25;99972.19;;;13.89;53.05
47761;BME280;33524;55.434;38.520;2023-03-23T08:25:51;99965.97;;;13.32;48.33
47761;BME280;33524;55.434;38.520;2023-03-23T08:28:19;99968.13;;;12.78;50.40
47761;BME280;33524;55.434;38.520;2023-03-23T08:30:47;99963.13;;;13.82;50.32
47761;BME280;33524;55.434;38.520;2023-03-23T08:33:16;99968.03;;;13.58;47.33
47761;BME280;33524;55.434;38.520;2023-03-23T08:35:42;99966.38;;;13.57;48.25
47761;BME280;33524;55.434;38.520;2023-03-23T08:38:11;99965.53;;;13.66;46.62
47761;BME280;33524;55.434;38.520;2023-03-23T08:40:38;99956.56;;;13.96;46.00
47761;BME280;33524;55.434;38.520;2023-03-23T08:43:05;99956.66;;;13.47;47.03
47761;BME280;33524;55.434;38.520;2023-03-23T08:45:33;99953.56;;;13.23;47.93
47761;BME280;33524;55.434;38.520;2023-03-23T08:48:00;99952.34;;;14.03;48.43
47761;BME280;33524;55.434;38.520;2023-03-23T08:50:29;99947.47;;;13.61;46.71
47761;BME280;33524;55.434;38.520;2023-03-23T08:52:57;99946.06;;;14.14;51.54
47761;BME280;33524;55.434;38.520;2023-03-23T08:55:26;99944.75;;;13.81;46.70
47761;BME280;33524;55.434;38.520;2023-03-23T08:57:52;99943.03;;;13.42;49.24
47761;BME280;33524;55.434;38.520;2023-03-23T09:00:21;99935.62;;;13.75;45.70
47761;BME280;33524;55.434;38.520;2023-03-23T09:02:53;99931.87;;;13.68;46.53
47761;BME280;33524;55.434;38.520;2023-03-23T09:05:22;99918.94;;;14.12;45.58
47761;BME280;33524;55.434;38.520;2023-03-23T09:07:56;99916.19;;;13.66;45.55
47761;BME280;33524;55.434;38.520;2023-03-23T09:10:27;99924.00;;;13.96;45.18
47761;BME280;33524;55.434;38.520;2023-03-23T09:12:54;99919.75;;;14.22;45.84
47761;BME280;33524;55.434;38.520;2023-03-23T09:15:21;99921.22;;;13.97;44.42
47761;BME280;33524;55.434;38.520;2023-03-23T09:17:51;99920.59;;;14.13;44.91
47761;BME280;33524;55.434;38.520;2023-03-23T09:20:21;99921.19;;;14.07;44.78
47761;BME280;33524;55.434;38.520;2023-03-23T09:22:52;99916.69;;;14.17;44.26
47761;BME280;33524;55.434;38.520;2023-03-23T09:25:21;99911.75;;;13.95;44.52
47761;BME280;33524;55.434;38.520;2023-03-23T09:27:50;99910.31;;;14.10;44.55
47761;BME280;33524;55.434;38.520;2023-03-23T09:30:20;99907.72;;;13.24;45.12
47761;BME280;33524;55.434;38.520;2023-03-23T09:32:46;99909.09;;;13.47;44.45
47761;BME280;33524;55.434;38.520;2023-03-23T09:35:15;99898.84;;;13.05;45.06
47761;BME280;33524;55.434;38.520;2023-03-23T09:37:44;99905.06;;;12.85;45.72
47761;BME280;33524;55.434;38.520;2023-03-23T09:40:15;99893.00;;;13.31;46.29
47761;BME280;33524;55.434;38.520;2023-03-23T09:45:59;99890.00;;;13.73;43.02
47761;BME280;33524;55.434;38.520;2023-03-23T09:51:55;99867.75;;;14.59;45.39
47761;BME280;33524;55.434;38.520;2023-03-23T09:54:30;99861.56;;;14.68;42.57
47761;BME280;33524;55.434;38.520;2023-03-23T09:56:59;99853.53;;;14.14;43.73
47761;BME280;33524;55.434;38.520;2023-03-23T09:59:34;99865.53;;;13.71;42.71
47761;BME280;33524;55.434;38.520;2023-03-23T10:02:15;99864.37;;;13.36;42.94
47761;BME280;33524;55.434;38.520;2023-03-23T10:04:47;99854.19;;;13.41;43.20
47761;BME280;33524;55.434;38.520;2023-03-23T10:07:17;99859.59;;;13.49;43.45
47761;BME280;33524;55.434;38.520;2023-03-23T10:09:48;99853.50;;;13.39;43.55
47761;BME280;33524;55.434;38.520;2023-03-23T10:12:27;99844.50;;;13.32;43.96
47761;BME280;33524;55.434;38.520;2023-03-23T10:15:04;99855.19;;;13.21;44.45
47761;BME280;33524;55.434;38.520;2023-03-23T10:18:02;99846.22;;;13.70;43.22
47761;BME280;33524;55.434;38.520;2023-03-23T10:20:36;99830.44;;;13.41;43.77
47761;BME280;33524;55.434;38.520;2023-03-23T10:23:32;99851.56;;;13.22;44.33
47761;BME280;33524;55.434;38.520;2023-03-23T10:26:04;99848.16;;;12.92;44.74
47761;BME280;33524;55.434;38.520;2023-03-23T10:28:40;99847.16;;;12.93;44.71
47761;BME280;33524;55.434;38.520;2023-03-23T10:31:11;99848.25;;;13.10;44.91
47761;BME280;33524;55.434;38.520;2023-03-23T10:33:58;99847.16;;;13.12;44.44
47761;BME280;33524;55.434;38.520;2023-03-23T10:36:30;99837.12;;;13.36;43.92
47761;BME280;33524;55.434;38.520;2023-03-23T10:39:19;99820.28;;;13.37;43.93
47761;BME280;33524;55.434;38.520;2023-03-23T10:41:46;99833.63;;;13.82;42.96
47761;BME280;33524;55.434;38.520;2023-03-23T10:44:18;99811.88;;;13.88;42.80
47761;BME280;33524;55.434;38.520;2023-03-23T10:46:52;99805.88;;;13.68;43.16
47761;BME280;33524;55.434;38.520;2023-03-23T10:49:30;99813.53;;;13.62;43.31
47761;BME280;33524;55.434;38.520;2023-03-23T10:52:30;99816.25;;;14.07;42.40
47761;BME280;33524;55.434;38.520;2023-03-23T10:55:07;99806.19;;;14.57;41.17
47761;BME280;33524;55.434;38.520;2023-03-23T10:57:37;99809.47;;;14.68;40.69
47761;BME280;33524;55.434;38.520;2023-03-23T11:00:18;99808.59;;;14.50;41.14
47761;BME280;33524;55.434;38.520;2023-03-23T11:05:37;99798.84;;;14.32;41.22
47761;BME280;33524;55.434;38.520;2023-03-23T11:08:12;99800.50;;;14.51;41.03
47761;BME280;33524;55.434;38.520;2023-03-23T11:10:48;99802.34;;;14.69;40.54
47761;BME280;33524;55.434;38.520;2023-03-23T11:13:16;99800.63;;;14.14;41.65
47761;BME280;33524;55.434;38.520;2023-03-23T11:15:45;99788.25;;;14.50;45.62
47761;BME280;33524;55.434;38.520;2023-03-23T11:18:19;99785.13;;;14.55;40.76
47761;BME280;33524;55.434;38.520;2023-03-23T11:20:52;99793.78;;;14.75;39.90
47761;BME280;33524;55.434;38.520;2023-03-23T11:23:26;99782.50;;;14.55;40.26
47761;BME280;33524;55.434;38.520;2023-03-23T11:25:54;99788.47;;;14.93;39.83
47761;BME280;33524;55.434;38.520;2023-03-23T11:28:32;99783.62;;;15.67;38.17
47761;BME280;33524;55.434;38.520;2023-03-23T11:31:03;99771.03;;;15.69;37.45
47761;BME280;33524;55.434;38.520;2023-03-23T11:33:37;99769.28;;;15.78;41.83
47761;BME280;33524;55.434;38.520;2023-03-23T11:36:06;99782.72;;;15.58;38.34
47761;BME280;33524;55.434;38.520;2023-03-23T11:38:34;99778.59;;;15.29;38.28
47761;BME280;33524;55.434;38.520;2023-03-23T11:41:01;99775.03;;;15.39;38.13
47761;BME280;33524;55.434;38.520;2023-03-23T11:43:27;99774.41;;;15.45;37.96
47761;BME280;33524;55.434;38.520;2023-03-23T11:46:03;99779.34;;;15.13;38.85
47761;BME280;33524;55.434;38.520;2023-03-23T11:48:45;99774.84;;;15.32;38.75
47761;BME280;33524;55.434;38.520;2023-03-23T11:51:21;99766.94;;;15.14;39.28
47761;BME280;33524;55.434;38.520;2023-03-23T11:54:28;99773.78;;;15.25;38.93
47761;BME280;33524;55.434;38.520;2023-03-23T11:56:56;99762.41;;;15.32;38.69
47761;BME280;33524;55.434;38.520;2023-03-23T11:59:29;99764.00;;;15.51;38.25
47761;BME280;33524;55.434;38.520;2023-03-23T12:02:13;99765.94;;;15.41;38.56
47761;BME280;33524;55.434;38.520;2023-03-23T12:05:11;99757.59;;;15.70;38.15
47761;BME280;33524;55.434;38.520;2023-03-23T12:08:10;99748.94;;;15.60;38.13
47761;BME280;33524;55.434;38.520;2023-03-23T12:16:48;99745.22;;;15.71;37.83
47761;BME280;33524;55.434;38.520;2023-03-23T12:22:24;99761.28;;;14.65;39.28
47761;BME280;33524;55.434;38.520;2023-03-23T12:25:08;99760.38;;;15.00;38.30
47761;BME280;33524;55.434;38.520;2023-03-23T12:28:05;99762.38;;;15.24;38.25
47761;BME280;33524;55.434;38.520;2023-03-23T12:30:38;99763.19;;;15.25;37.82
47761;BME280;33524;55.434;38.520;2023-03-23T12:33:46;99762.56;;;15.31;37.53
47761;BME280;33524;55.434;38.520;2023-03-23T12:37:43;99742.25;;;14.87;38.35
47761;BME280;33524;55.434;38.520;2023-03-23T12:48:35;99742.31;;;15.90;36.83
47761;BME280;33524;55.434;38.520;2023-03-23T12:57:02;99748.56;;;15.81;37.01
47761;BME280;33524;55.434;38.520;2023-03-23T12:59:44;99742.09;;;15.07;37.88
47761;BME280;33524;55.434;38.520;2023-03-23T13:02:33;99747.66;;;14.06;39.85
47761;BME280;33524;55.434;38.520;2023-03-23T13:05:06;99751.22;;;13.22;41.74
47761;BME280;33524;55.434;38.520;2023-03-23T13:07:47;99744.84;;;12.67;43.08
47761;BME280;33524;55.434;38.520;2023-03-23T13:10:23;99749.84;;;12.22;43.71
47761;BME280;33524;55.434;38.520;2023-03-23T13:12:53;99752.62;;;11.80;44.96
47761;BME280;33524;55.434;38.520;2023-03-23T13:15:32;99740.25;;;11.61;45.37
47761;BME280;33524;55.434;38.520;2023-03-23T13:18:18;99742.28;;;11.47;46.09
47761;BME280;33524;55.434;38.520;2023-03-23T13:21:05;99731.25;;;11.73;45.76
47761;BME280;33524;55.434;38.520;2023-03-23T13:23:44;99726.91;;;12.03;46.98
47761;BME280;33524;55.434;38.520;2023-03-23T13:26:14;99731.53;;;11.70;45.63
47761;BME280;33524;55.434;38.520;2023-03-23T13:28:57;99723.88;;;12.27;44.86
47761;BME280;33524;55.434;38.520;2023-03-23T13:31:29;99719.09;;;12.89;43.67
47761;BME280;33524;55.434;38.520;2023-03-23T13:34:06;99718.41;;;13.24;46.07
47761;BME280;33524;55.434;38.520;2023-03-23T13:36:36;99714.81;;;13.81;41.50
47761;BME280;33524;55.434;38.520;2023-03-23T13:39:20;99716.16;;;14.66;39.51
47761;BME280;33524;55.434;38.520;2023-03-23T13:42:19;99706.75;;;15.67;38.07
47761;BME280;33524;55.434;38.520;2023-03-23T13:44:56;99696.25;;;16.41;35.89
47761;BME280;33524;55.434;38.520;2023-03-23T13:47:38;99696.59;;;16.70;35.62
47761;BME280;33524;55.434;38.520;2023-03-23T13:50:26;99691.28;;;16.70;34.86
47761;BME280;33524;55.434;38.520;2023-03-23T13:52:57;99691.94;;;15.56;36.37